DW8453 Bekkjarvik NO current weather conditions

sailwx.info

Wind from 112 at 6 knots gusting 6

Air temperature 13.9° C
Dewpoint 10.9° C

Last reported at 2019-Aug-22 04:05 UTC.
Time now 2019-Aug-22 05:04 UTC

Location: N 60°01' E 005°12'.
View on Google Maps.

See reports from other nearby stations

  
Tides and Currents Weather Stations Pressure Air Temp Water Temp Dewpoint Dewpoint Depression Visibility Wind Speed Wind Dir Waves Ship Positions
date/time (UTC)wind fromknots sea level pressurealtimeterstation pressurevisibilityair tempwater tempwave heightnotes
2019-Aug-22 04:05 112 6 gusting 6 13.9
2019-Aug-22 04:00 112 8 gusting 7 13.9
2019-Aug-22 03:55 112 8 gusting 7 13.9
2019-Aug-22 03:50 112 6 gusting 6 13.9
2019-Aug-22 03:45 112 6 gusting 6 13.9
2019-Aug-22 03:40 112 6 gusting 6 13.9
2019-Aug-22 03:35 112 6 gusting 6 13.9
2019-Aug-22 03:30 112 6 gusting 6 13.9
2019-Aug-22 03:25 112 8 gusting 7 13.9
2019-Aug-22 03:20 112 6 gusting 6 13.9
2019-Aug-22 03:15 112 8 gusting 13 13.9
2019-Aug-22 03:10 158 9 gusting 11 13.9
2019-Aug-22 03:05 159 11 gusting 15 13.9
2019-Aug-22 03:00 202 11 gusting 12 13.9
2019-Aug-22 02:55 135 7 gusting 11 13.9
2019-Aug-22 02:50 191 11 gusting 13 13.9
2019-Aug-22 02:45 131 8 gusting 12 13.9
2019-Aug-22 02:40 170 14 gusting 14 13.9
2019-Aug-22 02:35 174 14 gusting 13 13.9
2019-Aug-22 02:30 180 13 gusting 13 13.9
2019-Aug-22 02:25 158 13 gusting 12 13.3
2019-Aug-22 02:20 140 11 gusting 13 13.3
2019-Aug-22 02:15 182 11 gusting 12 13.3
2019-Aug-22 02:10 171 8 gusting 12 13.3
2019-Aug-22 02:05 169 7 gusting 12 13.3
2019-Aug-22 02:00 181 8 gusting 8 13.3
2019-Aug-22 01:55 200 9 gusting 12 13.3
2019-Aug-22 01:50 159 9 gusting 13 13.3
2019-Aug-22 01:45 166 10 gusting 11 13.3
2019-Aug-22 01:40 150 6 gusting 7 13.3
2019-Aug-22 01:35 202 7 gusting 8 13.3
2019-Aug-22 01:30 180 8 gusting 8 13.3
2019-Aug-22 01:25 198 11 gusting 12 13.3
2019-Aug-22 01:20 139 9 gusting 11 13.3
2019-Aug-22 01:15 140 7 gusting 11 13.3
2019-Aug-22 01:10 149 10 gusting 10 13.3
2019-Aug-22 01:05 158 9 gusting 12 13.3
2019-Aug-22 01:00 202 10 gusting 12 13.3
2019-Aug-22 00:55 143 11 gusting 13 13.3
2019-Aug-22 00:50 178 13 gusting 13 13.3
2019-Aug-22 00:45 158 12 gusting 13 13.9
2019-Aug-22 00:40 160 11 gusting 12 13.9
2019-Aug-22 00:35 136 11 gusting 11 13.9
2019-Aug-22 00:30 140 11 gusting 12 13.9
2019-Aug-22 00:25 202 7 gusting 8 13.9
2019-Aug-22 00:20 167 7 gusting 8 13.9
2019-Aug-22 00:15 183 8 gusting 11 13.9
2019-Aug-22 00:10 171 12 gusting 12 13.9
2019-Aug-22 00:05 160 11 gusting 11 13.9
2019-Aug-22 00:00 176 7 gusting 8 13.9
2019-Aug-21 23:55 177 7 gusting 11 13.9
2019-Aug-21 23:50 163 9 gusting 13 13.9
2019-Aug-21 23:45 162 11 gusting 12 13.9
2019-Aug-21 23:40 181 10 gusting 10 13.9
2019-Aug-21 23:35 183 7 gusting 10 13.9
2019-Aug-21 23:30 166 7 gusting 10 13.9
2019-Aug-21 23:25 180 9 gusting 12 13.9
2019-Aug-21 23:20 164 13 gusting 13 13.9
2019-Aug-21 23:15 159 8 gusting 11 13.3
2019-Aug-21 23:10 142 7 gusting 11 13.3
2019-Aug-21 23:05 155 11 gusting 12 13.3
2019-Aug-21 23:00 166 8 gusting 13 13.3
2019-Aug-21 22:55 191 7 gusting 12 13.3
2019-Aug-21 22:50 145 7 gusting 10 13.3
2019-Aug-21 22:45 145 7 gusting 11 13.3
2019-Aug-21 22:40 153 11 gusting 12 13.3
2019-Aug-21 22:35 149 6 gusting 8 12.8
2019-Aug-21 22:30 156 9 gusting 10 12.8
2019-Aug-21 22:25 192 6 gusting 8 12.8
2019-Aug-21 22:20 150 5 gusting 8 12.8
2019-Aug-21 22:15 158 8 gusting 7 12.8
2019-Aug-21 22:10 179 8 gusting 10 12.8
2019-Aug-21 22:05 193 6 gusting 8 12.8
2019-Aug-21 22:00 177 7 gusting 7 12.8
2019-Aug-21 21:55 180 6 gusting 6 12.8
2019-Aug-21 21:50 155 7 gusting 10 12.8
2019-Aug-21 21:45 159 6 gusting 8 12.2
2019-Aug-21 21:40 139 4 gusting 6 12.2
2019-Aug-21 21:35 173 4 gusting 6 12.2
2019-Aug-21 21:30 158 5 gusting 6 12.2
2019-Aug-21 21:25 190 4 gusting 6 12.2
2019-Aug-21 21:20 181 4 gusting 5 12.2
2019-Aug-21 21:15 174 3 gusting 6 12.2
2019-Aug-21 21:10 158 4 gusting 5 12.8
2019-Aug-21 21:05 180 4 gusting 5 12.8
2019-Aug-21 21:00 145 6 gusting 6 12.8
2019-Aug-21 20:55 140 7 gusting 7 12.8
2019-Aug-21 20:50 180 6 gusting 6 12.8
2019-Aug-21 20:45 173 4 gusting 6 12.8
2019-Aug-21 20:40 183 6 gusting 6 12.8
2019-Aug-21 20:35 158 6 gusting 6 12.8
2019-Aug-21 20:30 170 4 gusting 6 12.8
2019-Aug-21 20:25 168 5 gusting 8 12.8
2019-Aug-21 20:20 179 6 gusting 7 12.8
2019-Aug-21 20:15 175 5 gusting 6 12.8
2019-Aug-21 20:10 180 4 gusting 6 13.3
2019-Aug-21 20:05 144 5 gusting 6 13.3
2019-Aug-21 20:00 143 4 gusting 6 13.3
2019-Aug-21 19:55 138 5 gusting 6 13.3
2019-Aug-21 19:50 154 5 gusting 6 13.3
2019-Aug-21 19:45 166 2 gusting 5 13.3
2019-Aug-21 19:40 169 5 gusting 7 13.9
2019-Aug-21 19:35 180 4 gusting 6 13.9
2019-Aug-21 19:30 160 5 gusting 5 13.9
2019-Aug-21 19:25 189 3 gusting 4 14.4
2019-Aug-21 19:20 198 5 gusting 6 14.4
2019-Aug-21 19:15 186 4 gusting 6 14.4
2019-Aug-21 19:10 180 4 gusting 6 15.0
2019-Aug-21 19:05 177 5 gusting 6 15.0
2019-Aug-21 19:00 184 5 gusting 6 15.6
2019-Aug-21 18:55 170 2 gusting 5 15.6
2019-Aug-21 18:50 206 6 gusting 6 16.1
2019-Aug-21 18:45 200 4 gusting 5 16.1
2019-Aug-21 18:40 212 4 gusting 5 16.7
2019-Aug-21 18:35 207 3 gusting 5 16.7
2019-Aug-21 18:30 204 5 gusting 6 16.7
2019-Aug-21 18:25 208 3 gusting 5 16.7
2019-Aug-21 18:20 207 4 gusting 6 17.2
2019-Aug-21 18:15 199 5 gusting 6 17.8
2019-Aug-21 18:10 202 8 gusting 10 17.8
2019-Aug-21 18:05 215 4 gusting 6 17.8
2019-Aug-21 18:00 223 5 gusting 6 18.3
2019-Aug-21 17:55 225 6 gusting 6 19.4
2019-Aug-21 17:50 225 8 gusting 8 21.1
2019-Aug-21 17:45 225 6 gusting 6 22.2
2019-Aug-21 17:40 218 4 gusting 5 22.2
2019-Aug-21 17:35 221 5 gusting 6 21.7
2019-Aug-21 17:30 188 6 gusting 7 20.6
2019-Aug-21 17:25 217 5 gusting 6 20.0
2019-Aug-21 17:20 185 6 gusting 6 18.3
2019-Aug-21 17:15 215 7 gusting 8 17.8
2019-Aug-21 17:10 175 7 gusting 7 17.8
2019-Aug-21 17:05 212 5 gusting 6 17.8
2019-Aug-21 17:00 195 6 gusting 7 17.2
2019-Aug-21 16:55 187 6 gusting 7 17.2
2019-Aug-21 16:50 206 4 gusting 6 17.2
2019-Aug-21 16:45 202 4 gusting 7 17.2
2019-Aug-21 16:40 199 6 gusting 8 17.2
2019-Aug-21 16:35 225 6 gusting 7 17.2
2019-Aug-21 16:30 215 10 gusting 11 17.2
2019-Aug-21 16:25 170 6 gusting 8 17.2
2019-Aug-21 16:20 213 5 gusting 7 17.2
2019-Aug-21 16:15 220 6 gusting 8 17.2
2019-Aug-21 16:10 202 5 gusting 6 17.2
2019-Aug-21 16:05 199 5 gusting 6 17.2
2019-Aug-21 16:00 228 6 gusting 8 17.2
2019-Aug-21 15:55 198 6 gusting 8 17.2
2019-Aug-21 15:50 222 5 gusting 11 17.2
2019-Aug-21 15:45 197 7 gusting 7 17.2
2019-Aug-21 15:40 190 7 gusting 10 17.2
2019-Aug-21 15:35 229 5 gusting 7 17.2
2019-Aug-21 15:30 206 6 gusting 10 17.2
2019-Aug-21 15:25 197 5 gusting 10 17.2
2019-Aug-21 15:20 226 7 gusting 12 17.2
2019-Aug-21 15:15 209 8 gusting 10 17.2
2019-Aug-21 15:10 193 4 gusting 6 16.7
2019-Aug-21 15:05 221 7 gusting 8 17.2
2019-Aug-21 15:00 177 3 gusting 7 17.2
2019-Aug-21 14:55 223 11 gusting 11 17.2
2019-Aug-21 14:50 197 4 gusting 6 16.7
2019-Aug-21 14:45 196 5 gusting 7 16.7
2019-Aug-21 14:40 221 8 gusting 11 16.7
2019-Aug-21 14:35 212 7 gusting 10 16.7
2019-Aug-21 14:30 203 8 gusting 10 16.7
2019-Aug-21 14:25 224 7 gusting 11 16.7
2019-Aug-21 14:20 242 11 gusting 11 16.7
2019-Aug-21 14:15 225 10 gusting 11 16.7
2019-Aug-21 14:10 261 7 gusting 10 17.2
2019-Aug-21 14:05 215 11 gusting 13 17.2
2019-Aug-21 14:00 214 8 gusting 13 17.2
2019-Aug-21 13:55 197 7 gusting 11 17.2
2019-Aug-21 13:50 212 6 gusting 10 17.2
2019-Aug-21 13:45 202 8 gusting 11 17.8
2019-Aug-21 13:40 238 6 gusting 8 17.2
2019-Aug-21 13:35 226 5 gusting 8 17.2
2019-Aug-21 13:30 237 8 gusting 8 16.7
2019-Aug-21 13:25 227 6 gusting 8 16.7
2019-Aug-21 13:20 220 6 gusting 7 17.2
2019-Aug-21 13:15 229 6 gusting 7 17.2
2019-Aug-21 13:10 208 6 gusting 8 17.2
2019-Aug-21 13:05 240 6 gusting 8 17.2
2019-Aug-21 13:00 254 6 gusting 8 17.2
2019-Aug-21 12:55 233 4 gusting 6 17.2
2019-Aug-21 12:50 227 6 gusting 10 17.2
2019-Aug-21 12:45 227 6 gusting 10 17.8
2019-Aug-21 12:40 245 9 gusting 10 17.2
2019-Aug-21 12:35 221 3 gusting 6 17.2
2019-Aug-21 12:30 234 5 gusting 6 17.2
2019-Aug-21 12:25 216 6 gusting 6 17.2
2019-Aug-21 12:20 212 5 gusting 6 17.2
2019-Aug-21 12:15 202 4 gusting 7 17.2
2019-Aug-21 12:10 235 4 gusting 6 17.2
2019-Aug-21 12:05 255 3 gusting 5 17.2
2019-Aug-21 12:00 207 1 gusting 4 17.2
2019-Aug-21 11:55 232 5 gusting 7 17.2
2019-Aug-21 11:50 223 3 gusting 7 16.7
2019-Aug-21 11:45 172 5 gusting 10 16.7
2019-Aug-21 11:40 245 5 gusting 6 17.2
2019-Aug-21 11:35 219 4 gusting 7 17.2
2019-Aug-21 11:30 211 7 gusting 8 17.2
2019-Aug-21 11:25 244 6 gusting 10 17.8
2019-Aug-21 11:20 181 2 gusting 4 17.8
2019-Aug-21 11:15 227 2 gusting 5 17.8
2019-Aug-21 11:10 248 4 gusting 6 17.8
2019-Aug-21 11:05 193 5 gusting 6 17.2
2019-Aug-21 11:00 229 4 gusting 6 17.2
2019-Aug-21 10:55 232 3 gusting 5 17.2
2019-Aug-21 10:50 174 4 gusting 6 17.2
2019-Aug-21 10:45 230 5 gusting 7 17.2
2019-Aug-21 10:40 236 4 gusting 6 17.2
2019-Aug-21 10:35 231 2 gusting 5 16.7
2019-Aug-21 10:30 254 5 gusting 6 16.7
2019-Aug-21 10:25 270 1 gusting 5 16.7
2019-Aug-21 10:20 255 5 gusting 6 17.2
2019-Aug-21 10:15 202 4 gusting 5 16.7
2019-Aug-21 10:10 219 1 gusting 2 16.7
2019-Aug-21 10:05 275 2 gusting 4 16.7
2019-Aug-21 10:00 257 1 gusting 4 16.7
2019-Aug-21 09:55 155 2 gusting 4 16.7
2019-Aug-21 09:50 135 2 gusting 4 16.7
2019-Aug-21 09:45 201 1 gusting 2 16.7
2019-Aug-21 09:40 201 4 gusting 5 16.1
2019-Aug-21 09:35 190 1 gusting 4 16.1
2019-Aug-21 09:30 217 4 gusting 5 16.1
2019-Aug-21 09:25 185 2 gusting 5 16.1
2019-Aug-21 09:20 188 2 gusting 4 16.1
2019-Aug-21 09:15 198 3 gusting 7 16.1
2019-Aug-21 09:10 162 4 gusting 6 16.1
2019-Aug-21 09:05 162 2 gusting 5 16.1
2019-Aug-21 09:00 167 4 gusting 5 16.7
2019-Aug-21 08:55 148 4 gusting 8 16.7
2019-Aug-21 08:50 182 4 gusting 5 16.7
2019-Aug-21 08:45 176 4 gusting 6 16.7
2019-Aug-21 08:40 195 5 gusting 6 16.7
2019-Aug-21 08:35 190 5 gusting 6 16.1
2019-Aug-21 08:30 152 4 gusting 6 16.1
2019-Aug-21 08:25 141 4 gusting 6 15.6
2019-Aug-21 08:20 129 6 gusting 6 15.6
2019-Aug-21 08:15 141 3 gusting 4 15.6
2019-Aug-21 08:10 161 5 gusting 5 15.0
2019-Aug-21 08:05 139 2 gusting 4 15.0
2019-Aug-21 08:00 138 3 gusting 4 14.4
2019-Aug-21 07:55 114 3 gusting 5 14.4
2019-Aug-21 07:50 129 3 gusting 5 14.4
2019-Aug-21 07:45 151 2 gusting 4 14.4
2019-Aug-21 07:40 135 1 gusting 5 13.9
2019-Aug-21 07:35 124 1 gusting 2 13.9
2019-Aug-21 07:30 134 3 gusting 5 13.9
2019-Aug-21 07:25 135 3 gusting 4 13.9
2019-Aug-21 07:20 128 1 gusting 4 13.9
2019-Aug-21 07:15 149 4 gusting 4 13.9
2019-Aug-21 07:10 145 4 gusting 4 13.9
2019-Aug-21 07:05 139 2 gusting 4 13.9
2019-Aug-21 07:00 130 1 gusting 2 13.9
2019-Aug-21 06:55 135 2 gusting 2 13.9
2019-Aug-21 06:50 143 1 gusting 2 13.9
2019-Aug-21 06:45 156 1 gusting 2 13.3
2019-Aug-21 06:40 135 1 gusting 2 13.3
2019-Aug-21 06:35 135 2 gusting 2 13.3
2019-Aug-21 06:30 114 1 gusting 4 13.3
2019-Aug-21 06:25 136 2 gusting 4 13.3
2019-Aug-21 06:20 141 1 gusting 2 13.3
2019-Aug-21 06:15 152 2 gusting 4 13.3
2019-Aug-21 06:10 141 4 gusting 4 13.3
2019-Aug-21 06:05 144 1 gusting 1 12.8
2019-Aug-21 06:00 158 0 gusting 1 12.8
2019-Aug-21 05:55 151 0 gusting 1 12.8
2019-Aug-21 05:50 135 1 gusting 1 12.8
2019-Aug-21 05:45 135 0 gusting 1 12.2
2019-Aug-21 05:40 135 0 gusting 1 12.2
2019-Aug-21 05:35 115 0 gusting 1 12.2
2019-Aug-21 05:30 112 1 gusting 1 11.7
2019-Aug-21 05:25 112 1 gusting 1 11.7
2019-Aug-21 05:20 135 1 gusting 1 11.7
2019-Aug-21 05:15 151 1 gusting 1 11.7
2019-Aug-21 05:10 135 1 gusting 1 11.7
2019-Aug-21 05:05 135 1 gusting 1 11.7
2019-Aug-21 05:00 135 1 gusting 2 11.7
2019-Aug-21 04:55 086 1 gusting 1 11.7
2019-Aug-21 04:50 135 1 gusting 2 11.7
2019-Aug-21 04:45 045 0 gusting 1 11.7
2019-Aug-21 04:40 022 1 gusting 1 11.7
2019-Aug-21 04:35 158 11.7
2019-Aug-21 04:30 158 0 gusting 1 11.7
2019-Aug-21 04:25 158 0 gusting 1 11.7
2019-Aug-21 04:20 112 1 gusting 1 11.7
2019-Aug-21 04:15 135 0 gusting 0 11.7
2019-Aug-21 04:10 135 0 gusting 0 11.7
2019-Aug-21 04:05 135 11.7
2019-Aug-21 04:00 135 1 gusting 1 11.7
2019-Aug-21 03:55 112 1 gusting 2 11.7
2019-Aug-21 03:50 135 1 gusting 1 11.7
2019-Aug-21 03:45 158 1 gusting 1 11.7
2019-Aug-21 03:40 202 0 gusting 1 11.7
2019-Aug-21 03:35 248 11.7
2019-Aug-21 03:30 333 11.7
2019-Aug-21 03:25 338 1 gusting 1 11.7
2019-Aug-21 03:20 330 1 gusting 1 11.7
2019-Aug-21 03:15 11.7
2019-Aug-21 03:10 022 0 gusting 2 11.7
2019-Aug-21 03:05 135 0 gusting 1 11.7
2019-Aug-21 03:00 068 0 gusting 0 11.7
2019-Aug-21 02:55 068 0 gusting 1 11.7
2019-Aug-21 02:50 022 0 gusting 0 11.7
2019-Aug-21 02:45 022 0 gusting 0 11.7
2019-Aug-21 02:40 022 0 gusting 0 11.7
2019-Aug-21 02:35 022 0 gusting 0 12.2
2019-Aug-21 02:30 022 12.2
2019-Aug-21 02:25 022 0 gusting 0 12.2
2019-Aug-21 02:20 022 0 gusting 1 12.2
2019-Aug-21 02:15 022 2 gusting 2 12.2
2019-Aug-21 02:10 12.2
2019-Aug-21 02:05 338 1 gusting 1 12.2
2019-Aug-21 02:00 358 1 gusting 4 12.2
2019-Aug-21 01:55 319 3 gusting 5 12.2
2019-Aug-21 01:50 343 4 gusting 6 12.2
2019-Aug-21 01:45 328 4 gusting 5 12.2
2019-Aug-21 01:40 331 4 gusting 5 12.2
2019-Aug-21 01:35 315 4 gusting 6 11.7
2019-Aug-21 01:30 312 3 gusting 4 12.2
2019-Aug-21 01:25 255 2 gusting 4 12.2
2019-Aug-21 01:20 261 2 gusting 5 12.2
2019-Aug-21 01:15 287 2 gusting 4 12.2
2019-Aug-21 01:10 271 2 gusting 5 12.2
2019-Aug-21 01:05 262 3 gusting 4 12.2
2019-Aug-21 01:00 321 2 gusting 4 12.2
2019-Aug-21 00:55 292 1 gusting 2 12.2
2019-Aug-21 00:50 316 2 gusting 2 12.2
2019-Aug-21 00:45 309 1 gusting 2 12.2
2019-Aug-21 00:40 329 2 gusting 4 12.2
2019-Aug-21 00:35 329 4 gusting 5 12.2
2019-Aug-21 00:30 335 1 gusting 2 12.2
2019-Aug-21 00:25 334 1 gusting 4 12.2
2019-Aug-21 00:20 312 4 gusting 4 12.2
2019-Aug-21 00:15 319 4 gusting 5 12.2
2019-Aug-21 00:10 307 2 gusting 5 12.2
2019-Aug-21 00:05 311 2 gusting 5 12.2
2019-Aug-21 00:00 317 4 gusting 6 12.2
2019-Aug-20 23:55 328 3 gusting 5 12.2
2019-Aug-20 23:50 298 3 gusting 5 12.2
2019-Aug-20 23:45 302 2 gusting 2 12.2
2019-Aug-20 23:40 315 2 gusting 4 12.2
2019-Aug-20 23:35 331 3 gusting 4 12.2
2019-Aug-20 23:30 336 3 gusting 5 12.2
2019-Aug-20 23:25 334 3 gusting 5 12.2
2019-Aug-20 23:20 329 3 gusting 5 12.2
2019-Aug-20 23:15 318 5 gusting 6 12.2
2019-Aug-20 23:10 329 5 gusting 10 12.2
2019-Aug-20 23:05 341 5 gusting 7 12.2
2019-Aug-20 23:00 322 3 gusting 6 12.2
2019-Aug-20 22:55 315 4 gusting 5 12.2
2019-Aug-20 22:50 308 4 gusting 5 12.2
2019-Aug-20 22:45 314 3 gusting 6 12.2
2019-Aug-20 22:40 293 3 gusting 5 12.2
2019-Aug-20 22:35 314 3 gusting 6 12.2
2019-Aug-20 22:30 304 5 gusting 6 12.2
2019-Aug-20 22:25 323 4 gusting 5 12.2
2019-Aug-20 22:20 326 5 gusting 6 12.2
2019-Aug-20 22:15 304 3 gusting 5 12.2
2019-Aug-20 22:10 315 4 gusting 4 12.2
2019-Aug-20 22:05 329 3 gusting 5 12.8
2019-Aug-20 22:00 319 4 gusting 5 12.2
2019-Aug-20 21:55 322 5 gusting 6 12.2
2019-Aug-20 21:50 316 6 gusting 6 12.2
2019-Aug-20 21:45 307 2 gusting 5 12.2
2019-Aug-20 21:40 334 3 gusting 5 12.2
2019-Aug-20 21:35 324 4 gusting 5 12.2
2019-Aug-20 21:30 325 4 gusting 6 12.2
2019-Aug-20 21:25 323 1 gusting 4 12.2
2019-Aug-20 21:20 302 2 gusting 6 12.2
2019-Aug-20 21:15 313 3 gusting 6 12.8
2019-Aug-20 21:10 311 1 gusting 6 12.8
2019-Aug-20 21:05 292 2 gusting 4 12.8
2019-Aug-20 21:00 304 5 gusting 6 12.8
2019-Aug-20 20:55 299 3 gusting 5 12.8
2019-Aug-20 20:50 307 6 gusting 8 12.8
2019-Aug-20 20:45 301 4 gusting 5 12.8
2019-Aug-20 20:40 315 5 gusting 7 12.8
2019-Aug-20 20:35 303 4 gusting 6 12.8
2019-Aug-20 20:30 299 5 gusting 6 12.8
2019-Aug-20 20:25 311 4 gusting 5 12.8
2019-Aug-20 20:20 315 4 gusting 5 12.8
2019-Aug-20 20:15 313 4 gusting 6 12.8
2019-Aug-20 20:10 311 4 gusting 6 12.8
2019-Aug-20 20:05 295 2 gusting 2 12.8
2019-Aug-20 20:00 282 3 gusting 4 12.8
2019-Aug-20 19:55 305 2 gusting 5 12.8
2019-Aug-20 19:50 315 3 gusting 5 12.8
2019-Aug-20 19:45 303 4 gusting 5 12.8
2019-Aug-20 19:40 332 2 gusting 4 12.8
2019-Aug-20 19:35 298 4 gusting 6 12.8
2019-Aug-20 19:30 319 4 gusting 6 12.8
2019-Aug-20 19:25 294 5 gusting 6 12.8
2019-Aug-20 19:20 289 4 gusting 5 12.8
2019-Aug-20 19:15 295 2 gusting 4 12.8
2019-Aug-20 19:10 292 2 gusting 4 12.8
2019-Aug-20 19:05 305 3 gusting 4 12.8
2019-Aug-20 19:00 290 2 gusting 4 12.8
2019-Aug-20 18:55 338 1 gusting 1 12.8
2019-Aug-20 18:50 315 2 gusting 4 13.3
2019-Aug-20 18:45 332 6 gusting 7 13.3
2019-Aug-20 18:40 285 2 gusting 2 13.3
2019-Aug-20 18:35 331 1 gusting 5 13.3
2019-Aug-20 18:30 315 3 gusting 5 13.3
2019-Aug-20 18:25 314 4 gusting 6 13.3
2019-Aug-20 18:20 318 5 gusting 6 13.3
2019-Aug-20 18:15 308 4 gusting 5 13.9
2019-Aug-20 18:10 292 2 gusting 6 13.9
2019-Aug-20 18:05 315 3 gusting 4 13.9
2019-Aug-20 18:00 305 2 gusting 4 13.9
2019-Aug-20 17:55 294 2 gusting 4 14.4
2019-Aug-20 17:50 270 1 gusting 4 13.9
2019-Aug-20 17:45 270 1 gusting 1 13.9
2019-Aug-20 17:40 256 1 gusting 5 13.9
2019-Aug-20 17:35 276 2 gusting 6 13.9
2019-Aug-20 17:30 272 6 gusting 7 14.4
2019-Aug-20 17:25 278 4 gusting 5 14.4
2019-Aug-20 17:20 276 3 gusting 6 14.4
2019-Aug-20 17:15 261 2 gusting 6 15.0
2019-Aug-20 17:10 296 3 gusting 7 15.0
2019-Aug-20 17:05 276 6 gusting 10 15.0
2019-Aug-20 17:00 292 4 gusting 7 15.0
2019-Aug-20 16:55 309 5 gusting 7 14.4
2019-Aug-20 16:50 261 5 gusting 6 14.4
2019-Aug-20 16:45 289 4 gusting 6 14.4
2019-Aug-20 16:40 281 2 gusting 5 15.0
2019-Aug-20 16:35 251 5 gusting 6 15.0
2019-Aug-20 16:30 256 5 gusting 7 15.0
2019-Aug-20 16:25 273 4 gusting 6 15.6
2019-Aug-20 16:20 268 4 gusting 6 15.6
2019-Aug-20 16:15 297 6 gusting 6 15.0
2019-Aug-20 16:10 284 5 gusting 6 15.0
2019-Aug-20 16:05 296 5 gusting 6 15.0
2019-Aug-20 16:00 292 4 gusting 8 15.0
2019-Aug-20 15:55 300 5 gusting 7 15.0
2019-Aug-20 15:50 283 5 gusting 6 15.0
2019-Aug-20 15:45 280 4 gusting 6 15.0
2019-Aug-20 15:40 309 6 gusting 8 15.0
2019-Aug-20 15:35 265 6 gusting 11 15.0
2019-Aug-20 15:30 299 5 gusting 6 14.4
2019-Aug-20 15:25 279 6 gusting 7 14.4
2019-Aug-20 15:20 293 4 gusting 10 14.4
2019-Aug-20 15:15 283 6 gusting 10 14.4
2019-Aug-20 15:10 259 4 gusting 6 14.4
2019-Aug-20 15:05 315 6 gusting 7 14.4
2019-Aug-20 15:00 296 7 gusting 8 14.4
2019-Aug-20 14:55 285 6 gusting 6 14.4
2019-Aug-20 14:50 293 6 gusting 6 14.4
2019-Aug-20 14:45 292 3 gusting 5 14.4
2019-Aug-20 14:40 308 4 gusting 7 14.4
2019-Aug-20 14:35 282 4 gusting 6 14.4
2019-Aug-20 14:30 276 4 gusting 6 14.4
2019-Aug-20 14:25 309 5 gusting 6 14.4
2019-Aug-20 14:20 289 5 gusting 6 14.4
2019-Aug-20 14:15 288 4 gusting 6 14.4
2019-Aug-20 14:10 270 6 gusting 7 14.4
2019-Aug-20 14:05 317 6 gusting 8 14.4
2019-Aug-20 14:00 305 6 gusting 7 15.0
2019-Aug-20 13:55 284 4 gusting 5 15.0
2019-Aug-20 13:50 280 2 gusting 4 15.0
2019-Aug-20 13:45 311 1 gusting 1 14.4
2019-Aug-20 13:40 299 1 gusting 2 14.4
2019-Aug-20 13:35 267 1 gusting 2 14.4
2019-Aug-20 13:30 276 2 gusting 4 14.4
2019-Aug-20 13:25 276 3 gusting 4 14.4
2019-Aug-20 13:20 285 2 gusting 4 14.4
2019-Aug-20 13:15 274 3 gusting 6 14.4
2019-Aug-20 13:10 304 4 gusting 6 15.0
2019-Aug-20 13:05 297 4 gusting 6 15.0
2019-Aug-20 13:00 275 4 gusting 6 15.0
2019-Aug-20 12:55 304 5 gusting 8 15.6
2019-Aug-20 12:50 310 5 gusting 8 16.1
2019-Aug-20 12:45 315 6 gusting 8 16.7
2019-Aug-20 12:40 260 4 gusting 6 16.7
2019-Aug-20 12:35 296 4 gusting 7 16.7
2019-Aug-20 12:30 286 6 gusting 6 16.7
2019-Aug-20 12:25 284 5 gusting 8 16.7
2019-Aug-20 12:20 274 3 gusting 7 16.7
2019-Aug-20 12:15 277 4 gusting 7 16.7
2019-Aug-20 12:10 268 7 gusting 8 16.7
2019-Aug-20 12:05 274 5 gusting 7 16.1
2019-Aug-20 12:00 277 5 gusting 7 16.7
2019-Aug-20 11:55 284 4 gusting 6 16.7
2019-Aug-20 11:50 266 5 gusting 8 16.1
2019-Aug-20 11:45 256 6 gusting 8 16.1
2019-Aug-20 11:40 293 4 gusting 6 16.7
2019-Aug-20 11:35 304 4 gusting 6 16.7
2019-Aug-20 11:30 261 6 gusting 8 16.1
2019-Aug-20 11:25 270 4 gusting 6 16.1
2019-Aug-20 11:20 305 4 gusting 6 16.7
2019-Aug-20 11:15 311 4 gusting 6 16.7
2019-Aug-20 11:10 281 4 gusting 6 16.1
2019-Aug-20 11:05 303 4 gusting 5 16.7
2019-Aug-20 11:00 270 4 gusting 7 16.1
2019-Aug-20 10:54 276 5 gusting 7 16.1
2019-Aug-20 10:50 274 8 gusting 10 16.1